createdAt,value
2022-08-12T00:00:17.897Z,20.10
2022-08-12T00:03:22.658Z,20.20
2022-08-12T00:06:28.456Z,20.30
2022-08-12T00:09:32.724Z,20.30
2022-08-12T00:12:37.399Z,19.90
2022-08-12T00:15:41.911Z,19.90
2022-08-12T00:18:46.014Z,20.00
2022-08-12T00:21:51.473Z,20.00
2022-08-12T00:24:55.472Z,20.20
2022-08-12T00:27:59.718Z,20.40
2022-08-12T00:31:03.708Z,20.40
2022-08-12T00:34:07.595Z,20.30
2022-08-12T00:37:14.527Z,20.10
2022-08-12T00:40:19.292Z,19.90
2022-08-12T00:43:08.846Z,19.90
2022-08-12T00:46:13.683Z,20.00
2022-08-12T00:49:02.514Z,20.00
2022-08-12T00:52:07.221Z,20.00
2022-08-12T00:54:57.436Z,19.80
2022-08-12T00:57:48.704Z,19.70
2022-08-12T01:00:36.434Z,19.70
2022-08-12T01:03:23.701Z,19.70
2022-08-12T01:06:25.646Z,19.80
2022-08-12T01:09:30.181Z,19.80
2022-08-12T01:12:18.770Z,19.80
2022-08-12T01:15:06.624Z,19.90
2022-08-12T01:17:53.266Z,19.90
2022-08-12T01:20:44.020Z,19.80
2022-08-12T01:23:43.486Z,19.90
2022-08-12T01:26:33.874Z,19.80
2022-08-12T01:29:25.680Z,19.80
2022-08-12T01:32:15.273Z,19.70
2022-08-12T01:35:05.699Z,19.80
2022-08-12T01:37:58.614Z,19.90
2022-08-12T01:40:47.841Z,19.80
2022-08-12T01:43:37.695Z,19.80
2022-08-12T01:46:38.055Z,19.80
2022-08-12T01:49:48.231Z,19.50
2022-08-12T01:52:43.388Z,19.60
2022-08-12T01:55:34.185Z,19.60
2022-08-12T01:58:28.406Z,19.60
2022-08-12T02:01:16.613Z,19.40
2022-08-12T02:04:32.823Z,19.20
2022-08-12T02:07:48.706Z,19.20
2022-08-12T02:11:02.131Z,19.20
2022-08-12T02:14:11.306Z,19.20
2022-08-12T02:17:08.967Z,19.10
2022-08-12T02:20:11.038Z,19.00
2022-08-12T02:22:58.479Z,18.90
2022-08-12T02:25:46.765Z,18.60
2022-08-12T02:28:34.092Z,18.50
2022-08-12T02:31:21.374Z,18.60
2022-08-12T02:34:12.501Z,18.70
2022-08-12T02:37:03.511Z,18.90
2022-08-12T02:39:51.678Z,18.90
2022-08-12T02:42:45.132Z,19.00
2022-08-12T02:45:38.055Z,19.10
2022-08-12T02:48:30.154Z,19.10
2022-08-12T02:51:20.959Z,19.10
2022-08-12T02:54:08.653Z,19.20
2022-08-12T02:56:55.961Z,19.30
2022-08-12T02:59:43.311Z,19.30
2022-08-12T03:02:32.356Z,19.40
2022-08-12T03:05:24.225Z,19.40
2022-08-12T03:08:29.880Z,19.40
2022-08-12T03:11:26.311Z,19.30
2022-08-12T03:14:17.531Z,19.40
2022-08-12T03:17:14.774Z,19.30
2022-08-12T03:20:09.738Z,19.30
2022-08-12T03:22:59.889Z,19.20
2022-08-12T03:25:50.512Z,19.20
2022-08-12T03:28:54.158Z,19.00
2022-08-12T03:31:41.084Z,18.70
2022-08-12T03:34:29.829Z,18.50
2022-08-12T03:37:17.856Z,18.50
2022-08-12T03:40:08.186Z,18.40
2022-08-12T03:43:14.041Z,18.20
2022-08-12T03:46:25.119Z,18.20
2022-08-12T03:49:29.730Z,18.10
2022-08-12T03:52:34.354Z,18.10
2022-08-12T03:55:38.586Z,18.20
2022-08-12T03:58:45.027Z,18.20
2022-08-12T04:01:40.819Z,18.30
2022-08-12T04:04:34.145Z,18.50
2022-08-12T04:07:21.835Z,18.50
2022-08-12T04:10:09.253Z,18.60
2022-08-12T04:13:15.438Z,18.70
2022-08-12T04:16:06.582Z,18.70
2022-08-12T04:18:53.833Z,18.80
2022-08-12T04:22:00.871Z,18.80
2022-08-12T04:24:50.701Z,18.80
2022-08-12T04:27:37.641Z,19.00
2022-08-12T04:30:32.434Z,18.90
2022-08-12T04:33:21.476Z,18.90
2022-08-12T04:36:08.624Z,18.80
2022-08-12T04:38:59.532Z,18.80
2022-08-12T04:41:50.342Z,18.60
2022-08-12T04:44:45.419Z,18.40
2022-08-12T04:47:32.521Z,18.40
2022-08-12T04:50:34.373Z,18.30
2022-08-12T04:53:23.515Z,18.20
2022-08-12T04:56:11.354Z,18.20
2022-08-12T04:58:58.992Z,18.20
2022-08-12T05:01:51.602Z,18.30
2022-08-12T05:04:39.133Z,18.30
2022-08-12T05:07:27.671Z,18.50
2022-08-12T05:10:14.534Z,18.40
2022-08-12T05:13:03.538Z,18.50
2022-08-12T05:16:03.784Z,18.50
2022-08-12T05:18:51.959Z,18.70
2022-08-12T05:21:38.930Z,19.20
2022-08-12T05:24:30.002Z,19.60
2022-08-12T05:27:18.097Z,20.30
2022-08-12T05:30:09.269Z,20.80
2022-08-12T05:32:59.942Z,21.50
2022-08-12T05:35:50.143Z,22.00
2022-08-12T05:38:54.930Z,22.10
2022-08-12T05:41:44.435Z,22.20
2022-08-12T05:44:31.149Z,22.90
2022-08-12T05:47:17.721Z,23.30
2022-08-12T05:50:05.532Z,23.90
2022-08-12T05:52:53.007Z,23.60
2022-08-12T05:55:41.157Z,23.70
2022-08-12T05:58:30.968Z,24.20
2022-08-12T06:02:10.635Z,24.20
2022-08-12T06:04:24.720Z,24.40
2022-08-12T06:08:00.868Z,24.80
2022-08-12T06:10:32.519Z,24.90
2022-08-12T06:13:28.339Z,25.20
2022-08-12T06:16:28.642Z,25.60
2022-08-12T06:19:16.033Z,25.90
2022-08-12T06:22:03.009Z,26.20
2022-08-12T06:24:49.849Z,26.20
2022-08-12T06:27:43.124Z,26.40
2022-08-12T06:31:14.898Z,27.20
2022-08-12T06:35:23.704Z,27.80
2022-08-12T06:37:07.330Z,28.10
2022-08-12T06:39:53.911Z,28.10
2022-08-12T06:42:51.425Z,28.00
2022-08-12T06:45:46.918Z,28.40
2022-08-12T06:48:34.158Z,28.60
2022-08-12T06:51:22.468Z,28.20
2022-08-12T06:54:10.508Z,28.30
2022-08-12T06:57:04.304Z,28.00
2022-08-12T06:59:52.422Z,27.80
2022-08-12T07:02:39.601Z,28.10
2022-08-12T07:05:26.771Z,28.10
2022-08-12T07:08:16.888Z,28.20
2022-08-12T07:11:06.007Z,28.60
2022-08-12T07:14:11.425Z,28.90
2022-08-12T07:17:02.278Z,28.70
2022-08-12T07:19:50.029Z,28.70
2022-08-12T07:22:36.585Z,29.10
2022-08-12T07:25:40.384Z,29.40
2022-08-12T07:28:29.429Z,29.80
2022-08-12T07:31:17.353Z,29.50
2022-08-12T07:34:05.657Z,29.40
2022-08-12T07:36:52.482Z,29.60
2022-08-12T07:39:50.362Z,29.70
2022-08-12T07:42:47.422Z,30.20
2022-08-12T07:45:34.261Z,29.70
2022-08-12T07:48:21.666Z,30.10
2022-08-12T07:51:09.458Z,30.50
2022-08-12T07:54:03.135Z,30.20
2022-08-12T07:56:50.196Z,30.60
2022-08-12T07:59:38.578Z,30.20
2022-08-12T08:02:26.680Z,30.40
2022-08-12T08:05:16.187Z,30.40
2022-08-12T08:08:03.763Z,31.10
2022-08-12T08:10:51.977Z,31.80
2022-08-12T08:13:39.513Z,32.20
2022-08-12T08:16:27.234Z,32.80
2022-08-12T08:19:19.162Z,31.60
2022-08-12T08:22:05.521Z,31.50
2022-08-12T08:24:57.681Z,30.80
2022-08-12T08:27:46.752Z,30.90
2022-08-12T08:30:34.683Z,31.50
2022-08-12T08:34:04.205Z,30.90
2022-08-12T08:36:30.344Z,30.80
2022-08-12T08:39:17.909Z,30.50
2022-08-12T08:42:22.451Z,31.20
2022-08-12T08:45:12.992Z,30.30
2022-08-12T08:48:00.597Z,30.40
2022-08-12T08:50:57.725Z,30.90
2022-08-12T08:53:52.765Z,31.00
2022-08-12T08:56:49.884Z,31.30
2022-08-12T08:59:37.232Z,30.70
2022-08-12T09:02:23.719Z,31.30
2022-08-12T09:05:15.345Z,30.90
2022-08-12T09:12:07.279Z,30.70
2022-08-12T09:14:37.197Z,31.20
2022-08-12T09:17:24.096Z,31.00
2022-08-12T09:20:16.486Z,30.60
2022-08-12T09:26:15.975Z,30.30
2022-08-12T09:29:12.192Z,29.90
2022-08-12T09:32:03.888Z,29.60
2022-08-12T09:34:55.080Z,30.60
2022-08-12T09:37:57.673Z,30.40
2022-08-12T09:40:57.030Z,30.00
2022-08-12T09:44:05.097Z,30.10
2022-08-12T09:46:52.290Z,30.40
2022-08-12T09:49:42.528Z,30.40
2022-08-12T09:52:32.029Z,31.30
2022-08-12T09:56:05.544Z,30.90
2022-08-12T09:58:57.990Z,30.70
2022-08-12T10:02:42.925Z,30.30
2022-08-12T10:04:51.530Z,31.10
2022-08-12T10:07:39.616Z,31.20
2022-08-12T10:10:30.462Z,31.10
2022-08-12T10:13:40.232Z,31.00
2022-08-12T10:16:39.138Z,30.50
2022-08-12T10:19:36.229Z,30.10
2022-08-12T10:22:40.487Z,30.40
2022-08-12T10:26:35.488Z,31.30
2022-08-12T10:30:02.041Z,32.20
2022-08-12T10:32:43.766Z,32.80
2022-08-12T10:35:37.928Z,33.10
2022-08-12T10:38:34.807Z,32.60
2022-08-12T10:41:57.730Z,31.80
2022-08-12T10:44:46.864Z,32.00
2022-08-12T10:48:16.102Z,32.40
2022-08-12T10:51:00.821Z,32.30
2022-08-12T10:53:50.578Z,32.00
2022-08-12T10:56:40.571Z,32.30
2022-08-12T11:00:32.077Z,31.70
2022-08-12T11:04:27.161Z,31.70
2022-08-12T11:07:10.320Z,32.40
2022-08-12T11:08:51.672Z,32.90
2022-08-12T11:12:36.949Z,32.80
2022-08-12T11:14:51.499Z,32.20
2022-08-12T11:17:52.964Z,32.20
2022-08-12T11:20:44.904Z,31.70
2022-08-12T11:23:36.230Z,31.90
2022-08-12T11:26:24.282Z,31.60
2022-08-12T11:29:22.386Z,31.50
2022-08-12T11:32:09.648Z,31.40
2022-08-12T11:34:59.617Z,32.10
2022-08-12T11:37:55.871Z,31.30
2022-08-12T11:40:45.724Z,31.70
2022-08-12T11:43:50.766Z,31.60
2022-08-12T11:46:42.028Z,31.90
2022-08-12T11:49:32.366Z,31.60
2022-08-12T11:52:54.893Z,31.80
2022-08-12T11:55:29.460Z,31.90
2022-08-12T11:59:38.216Z,31.20
2022-08-12T12:02:02.186Z,31.40
2022-08-12T12:04:30.223Z,31.60
2022-08-12T12:07:16.728Z,31.80
2022-08-12T12:10:05.506Z,32.10
2022-08-12T12:12:53.945Z,31.90
2022-08-12T12:15:41.406Z,31.80
2022-08-12T12:18:31.406Z,31.30
2022-08-12T12:21:18.215Z,31.20
2022-08-12T12:24:24.702Z,31.60
2022-08-12T12:27:19.404Z,31.60
2022-08-12T12:30:17.509Z,31.60
2022-08-12T12:33:18.083Z,31.10
2022-08-12T12:36:18.581Z,31.20
2022-08-12T12:39:10.559Z,31.10
2022-08-12T12:42:43.086Z,31.10
2022-08-12T12:45:19.758Z,30.90
2022-08-12T12:48:14.214Z,30.80
2022-08-12T12:51:49.399Z,30.80
2022-08-12T12:54:26.059Z,30.80
2022-08-12T12:57:16.851Z,30.80
2022-08-12T13:00:16.619Z,31.00
2022-08-12T13:03:03.671Z,30.80
2022-08-12T13:05:53.947Z,30.90
2022-08-12T13:08:43.214Z,30.90
2022-08-12T13:11:42.139Z,30.40
2022-08-12T13:14:31.665Z,29.90
2022-08-12T13:17:23.556Z,29.70
2022-08-12T13:20:11.330Z,30.10
2022-08-12T13:23:35.965Z,30.30
2022-08-12T13:26:24.494Z,30.10
2022-08-12T13:29:12.875Z,30.00
2022-08-12T13:32:19.857Z,29.80
2022-08-12T13:35:20.259Z,29.70
2022-08-12T13:38:34.541Z,30.00
2022-08-12T13:41:33.562Z,30.10
2022-08-12T13:44:20.156Z,30.10
2022-08-12T13:47:18.373Z,30.00
2022-08-12T13:50:05.768Z,30.00
2022-08-12T13:52:57.435Z,29.90
2022-08-12T13:55:47.120Z,29.70
2022-08-12T13:58:37.407Z,29.70
2022-08-12T14:01:24.350Z,29.90
2022-08-12T14:04:12.193Z,30.00
2022-08-12T14:07:02.852Z,30.10
2022-08-12T14:10:08.361Z,30.10
2022-08-12T14:12:57.485Z,30.00
2022-08-12T14:15:47.802Z,29.90
2022-08-12T14:18:35.558Z,29.80
2022-08-12T14:21:26.873Z,29.60
2022-08-12T14:24:15.161Z,29.40
2022-08-12T14:27:08.674Z,29.60
2022-08-12T14:30:06.043Z,29.60
2022-08-12T14:33:03.347Z,29.80
2022-08-12T14:35:50.489Z,30.00
2022-08-12T14:38:40.352Z,29.90
2022-08-12T14:41:37.003Z,29.80
2022-08-12T14:44:57.249Z,29.70
2022-08-12T14:47:58.564Z,29.70
2022-08-12T14:51:02.627Z,29.50
2022-08-12T14:56:08.904Z,29.60
2022-08-12T14:57:20.627Z,29.60
2022-08-12T15:00:25.619Z,29.80
2022-08-12T15:03:13.555Z,29.90
2022-08-12T15:06:06.179Z,29.80
2022-08-12T15:09:12.154Z,29.50
2022-08-12T15:12:03.687Z,29.20
2022-08-12T15:14:51.504Z,29.10
2022-08-12T15:17:40.213Z,29.00
2022-08-12T15:20:33.455Z,29.10
2022-08-12T15:23:28.915Z,29.10
2022-08-12T15:26:21.208Z,29.10
2022-08-12T15:29:14.500Z,29.10
2022-08-12T15:32:07.677Z,29.20
2022-08-12T15:35:03.873Z,29.40
2022-08-12T15:38:18.768Z,29.30
2022-08-12T15:41:07.156Z,29.30
2022-08-12T15:44:37.406Z,29.40
2022-08-12T15:47:03.261Z,29.30
2022-08-12T15:49:59.901Z,29.40
2022-08-12T15:52:49.496Z,29.40
2022-08-12T15:55:36.333Z,29.50
2022-08-12T15:58:33.814Z,29.40
2022-08-12T16:01:21.068Z,29.60
2022-08-12T16:04:12.922Z,29.50
2022-08-12T16:07:06.071Z,29.50
2022-08-12T16:10:05.568Z,29.40
2022-08-12T16:12:56.361Z,29.30
2022-08-12T16:15:51.143Z,29.30
2022-08-12T16:18:49.606Z,29.30
2022-08-12T16:21:51.818Z,29.20
2022-08-12T16:24:44.652Z,29.20
2022-08-12T16:27:38.515Z,29.20
2022-08-12T16:30:31.409Z,29.10
2022-08-12T16:33:19.797Z,29.20
2022-08-12T16:36:11.361Z,29.10
2022-08-12T16:39:01.363Z,28.80
2022-08-12T16:41:49.048Z,28.60
2022-08-12T16:44:43.014Z,28.50
2022-08-12T16:47:57.564Z,28.40
2022-08-12T16:50:49.092Z,28.40
2022-08-12T16:53:44.023Z,28.40
2022-08-12T16:56:33.728Z,28.60
2022-08-12T16:59:26.259Z,28.60
2022-08-12T17:02:31.392Z,28.60
2022-08-12T17:05:21.121Z,28.60
2022-08-12T17:08:08.596Z,28.70
2022-08-12T17:10:55.687Z,28.60
2022-08-12T17:13:53.564Z,28.60
2022-08-12T17:16:41.397Z,28.60
2022-08-12T17:20:29.111Z,28.70
2022-08-12T17:22:38.908Z,28.60
2022-08-12T17:25:26.316Z,28.40
2022-08-12T17:28:17.181Z,28.40
2022-08-12T17:31:05.112Z,28.40
2022-08-12T17:33:55.502Z,28.20
2022-08-12T17:36:45.506Z,28.20
2022-08-12T17:40:15.546Z,28.20
2022-08-12T17:42:47.866Z,28.20
2022-08-12T17:45:34.964Z,28.10
2022-08-12T17:48:24.353Z,28.10
2022-08-12T17:51:22.118Z,28.10
2022-08-12T17:54:12.934Z,28.00
2022-08-12T17:57:00.215Z,28.10
2022-08-12T17:59:49.746Z,28.00
2022-08-12T18:02:38.702Z,27.90
2022-08-12T18:05:43.500Z,27.90
2022-08-12T18:08:35.708Z,27.80
2022-08-12T18:12:06.398Z,27.80
2022-08-12T18:14:55.369Z,27.80
2022-08-12T18:17:47.310Z,27.80
2022-08-12T18:20:36.692Z,27.70
2022-08-12T18:23:26.134Z,27.60
2022-08-12T18:26:26.981Z,27.60
2022-08-12T18:29:15.913Z,27.50
2022-08-12T18:32:17.917Z,27.40
2022-08-12T18:35:11.281Z,27.30
2022-08-12T18:37:59.429Z,27.30
2022-08-12T18:41:06.144Z,27.20
2022-08-12T18:43:59.817Z,27.20
2022-08-12T18:46:55.397Z,27.10
2022-08-12T18:49:47.321Z,26.80
2022-08-12T18:52:38.949Z,26.50
2022-08-12T18:55:37.481Z,26.40
2022-08-12T18:58:30.350Z,26.20
2022-08-12T19:02:18.892Z,26.20
2022-08-12T19:04:29.188Z,26.20
2022-08-12T19:07:21.745Z,26.20
2022-08-12T19:10:10.275Z,26.10
2022-08-12T19:13:24.322Z,26.10
2022-08-12T19:16:12.393Z,25.80
2022-08-12T19:19:00.993Z,25.60
2022-08-12T19:21:56.607Z,25.60
2022-08-12T19:25:01.165Z,25.30
2022-08-12T19:27:51.749Z,24.90
2022-08-12T19:30:56.251Z,24.80
2022-08-12T19:34:06.287Z,24.60
2022-08-12T19:36:52.049Z,24.50
2022-08-12T19:40:09.573Z,24.20
2022-08-12T19:42:48.540Z,24.10
2022-08-12T19:45:48.317Z,23.90
2022-08-12T19:48:35.770Z,24.10
2022-08-12T19:51:33.210Z,24.20
2022-08-12T19:54:22.941Z,24.10
2022-08-12T19:57:10.578Z,24.00
2022-08-12T20:00:04.029Z,23.70
2022-08-12T20:02:54.029Z,23.70
2022-08-12T20:06:05.881Z,23.40
2022-08-12T20:08:56.100Z,23.40
2022-08-12T20:12:11.452Z,23.20
2022-08-12T20:14:53.446Z,22.90
2022-08-12T20:17:51.061Z,22.60
2022-08-12T20:20:38.888Z,22.50
2022-08-12T20:23:50.191Z,22.20
2022-08-12T20:26:34.824Z,22.10
2022-08-12T20:29:26.202Z,22.00
2022-08-12T20:32:29.487Z,22.10
2022-08-12T20:35:39.087Z,22.10
2022-08-12T20:38:32.624Z,22.20
2022-08-12T20:41:21.961Z,22.20
2022-08-12T20:44:16.943Z,22.00
2022-08-12T20:47:16.604Z,22.00
2022-08-12T20:50:08.003Z,21.80
2022-08-12T20:52:55.405Z,21.70
2022-08-12T20:55:44.313Z,21.80
2022-08-12T20:58:44.155Z,22.00
2022-08-12T21:01:45.893Z,21.90
2022-08-12T21:04:53.112Z,21.90
2022-08-12T21:07:47.627Z,22.00
2022-08-12T21:10:38.282Z,22.00
2022-08-12T21:13:26.463Z,22.00
2022-08-12T21:16:44.805Z,21.90
2022-08-12T21:19:51.959Z,21.80
2022-08-12T21:22:43.137Z,21.80
2022-08-12T21:25:45.157Z,21.80
2022-08-12T21:28:33.487Z,21.90
2022-08-12T21:32:40.228Z,22.00
2022-08-12T21:34:30.803Z,22.00
2022-08-12T21:37:27.508Z,22.10
2022-08-12T21:40:15.343Z,22.10
2022-08-12T21:43:04.227Z,21.90
2022-08-12T21:46:01.163Z,22.00
2022-08-12T21:48:52.158Z,22.10
2022-08-12T21:51:49.229Z,22.10
2022-08-12T21:54:42.602Z,22.00
2022-08-12T21:57:36.280Z,22.00
2022-08-12T22:00:39.685Z,22.10
2022-08-12T22:04:04.009Z,22.00
2022-08-12T22:06:53.307Z,22.00
2022-08-12T22:09:43.457Z,21.80
2022-08-12T22:12:34.661Z,21.80
2022-08-12T22:15:24.585Z,21.80
2022-08-12T22:18:12.839Z,21.70
2022-08-12T22:21:02.407Z,21.70
2022-08-12T22:23:52.317Z,21.70
2022-08-12T22:26:53.691Z,21.70
2022-08-12T22:29:57.609Z,21.70
2022-08-12T22:32:49.816Z,21.70
2022-08-12T22:35:56.365Z,21.60
2022-08-12T22:38:46.092Z,21.60
2022-08-12T22:41:56.860Z,21.50
2022-08-12T22:45:03.669Z,21.40
2022-08-12T22:47:56.063Z,21.40
2022-08-12T22:50:43.014Z,21.30
2022-08-12T22:53:36.430Z,21.20
2022-08-12T22:56:30.804Z,21.10
2022-08-12T22:59:18.086Z,21.00
2022-08-12T23:02:11.324Z,20.80
2022-08-12T23:04:58.921Z,20.60
2022-08-12T23:07:58.793Z,20.50
2022-08-12T23:10:47.456Z,20.50
2022-08-12T23:13:55.387Z,20.20
2022-08-12T23:16:43.365Z,20.20
2022-08-12T23:19:38.436Z,20.00
2022-08-12T23:22:36.115Z,20.00
2022-08-12T23:25:54.131Z,20.00
2022-08-12T23:28:52.592Z,19.90
2022-08-12T23:32:03.180Z,19.80
2022-08-12T23:34:48.067Z,19.80
2022-08-12T23:37:47.595Z,19.60
2022-08-12T23:40:40.555Z,19.40
2022-08-12T23:43:39.130Z,19.20
2022-08-12T23:46:27.329Z,19.20
2022-08-12T23:49:55.320Z,19.20
2022-08-12T23:52:21.690Z,19.10
2022-08-12T23:55:24.610Z,19.20
2022-08-12T23:58:20.849Z,19.20
